Terminal Aerodrome Forecast
Issued by NWS

Home | Current Version | Previous Version | Text Only | Print | Product List | Glossary On
Versions: 1 2 3 4 5 6 7 8 9 10 11 12 13 14 15 16
000
FTAK31 PAFA 171727
TAFASC
TAF
PASC 171727Z 1718/1818 05016KT 4SM BR VCSH OVC018
     FM172000 08016KT 2SM -SN BR BKN010
     FM180200 09010KT 5SM BR VCSH OVC007
     FM181300 18007KT 6SM BR VCSH OVC015=

USA.gov is the U.S. government's official web portal to all federal, state and local government web resources and services.